KRNM

Ramona Airport

Ramona, California, USA
METAR KRNM 260410Z AUTO 00000KT 10SM BKN019 13/11 A3007 RMK AO2 T01330111
Observed Flight Rules
May-26 @ 04:10 UTC (13 minutes ago) Marginal Visual Flight Rules
Visibility Clouds
10 miles
  • Broken at 1,900' AGL
Temperatures Readings
Current 13°C / 55°F
Dewpoint 11°C / 52°F
Humidity 88%
Altimeter 30.07" Hg
Pressure 1018 hPa
Elevation 427
METAR KRNM 260410Z AUTO 00000KT 10SM BKN019 13/11 A3007 RMK AO2 T01330111
Observed Flight Rules
May-26 @ 04:10 UTC
(13 minutes ago)
MVFR
Clouds
  • Broken at 1,900' AGL
Temperature Dewpoint
13°C / 55°F 11°C / 52°F
Humidity Altimeter Pressure
88% 30.07" Hg 1018 hPa